Time;durP1;ratioP1;P1;durP2;ratioP2;P2;SDS_P1;SDS_P2;PMS_P1;PMS_P2;Temp;Humidity;BMP_temperature;BMP_pressure;BME280_temperature;BME280_humidity;BME280_pressure;Samples;Min_cycle;Max_cycle;Signal;HPM_P1;HPM_P2
2022/06/12 00:02:43;;;;;;;8.82;1.80;;;;;;;23.81;46.74;101191.13;5012846;28;20068;-62
2022/06/12 00:05:31;;;;;;;5.70;1.88;;;;;;;23.71;47.00;101192.69;5012771;28;20048;-62
2022/06/12 00:08:17;;;;;;;6.95;2.50;;;;;;;23.63;47.41;101201.38;5012615;28;20061;-63
2022/06/12 00:11:03;;;;;;;3.75;2.00;;;;;;;23.68;47.29;101199.03;5012379;28;20072;-63
2022/06/12 00:13:58;;;;;;;4.60;2.17;;;;;;;23.66;47.35;101201.41;5018406;28;20053;-61
2022/06/12 00:16:45;;;;;;;4.10;2.00;;;;;;;23.54;47.84;101210.09;5012505;28;20053;-62
2022/06/12 00:19:30;;;;;;;8.02;2.50;;;;;;;23.51;48.33;101208.13;5012464;28;20045;-62
2022/06/12 00:22:16;;;;;;;6.78;2.25;;;;;;;23.55;48.03;101206.13;5012390;28;20053;-62
2022/06/12 00:25:01;;;;;;;3.78;2.70;;;;;;;23.52;48.00;101201.34;5012447;28;20048;-62
2022/06/12 00:27:46;;;;;;;5.32;2.40;;;;;;;23.50;47.93;101208.50;5016496;28;20052;-62
2022/06/12 00:30:32;;;;;;;5.32;2.58;;;;;;;23.52;47.99;101206.13;5012638;28;20052;-62
2022/06/12 00:33:17;;;;;;;3.45;2.08;;;;;;;23.55;47.74;101200.59;5011606;28;20053;-62
2022/06/12 00:36:04;;;;;;;6.53;2.20;;;;;;;23.58;47.30;101199.78;5012220;28;20041;-62
2022/06/12 00:38:48;;;;;;;5.78;1.92;;;;;;;23.54;47.69;101196.22;5011998;28;20068;-62
2022/06/12 00:41:34;;;;;;;7.63;1.80;;;;;;;23.61;47.27;101196.25;5011926;28;20041;-62
2022/06/12 00:44:24;;;;;;;2.42;1.70;;;;;;;23.67;47.35;101207.78;5011890;28;20512;-62
2022/06/12 00:47:12;;;;;;;2.85;1.70;;;;;;;23.68;47.24;101201.81;5011986;28;20064;-62
2022/06/12 00:50:03;;;;;;;3.17;1.52;;;;;;;23.56;47.47;101207.72;5011885;28;20532;-60
2022/06/12 00:52:50;;;;;;;3.22;1.50;;;;;;;23.46;47.59;101202.94;5012041;28;20065;-61
2022/06/12 00:56:03;;;;;;;4.65;1.88;;;;;;;23.51;47.60;101208.13;5011693;28;20068;-61
2022/06/12 00:58:56;;;;;;;5.20;1.80;;;;;;;23.33;48.04;101198.88;5011768;28;20068;-62
2022/06/12 01:01:51;;;;;;;3.75;1.63;;;;;;;23.36;48.19;101206.44;5011879;28;20053;-62
2022/06/12 01:07:45;;;;;;;3.42;1.80;;;;;;;23.26;48.18;101207.94;5011660;28;19914;-62
2022/06/12 01:10:32;;;;;;;1.70;1.20;;;;;;;23.07;48.69;101199.13;5011473;28;20041;-62
2022/06/12 01:13:21;;;;;;;11.02;1.73;;;;;;;23.01;48.93;101205.06;5011629;28;20048;-62
2022/06/12 01:16:13;;;;;;;2.90;1.70;;;;;;;23.03;48.60;101201.91;5011529;28;20034;-61
2022/06/12 01:18:58;;;;;;;2.53;1.63;;;;;;;22.99;48.92;101201.88;5011626;28;20049;-61
2022/06/12 01:22:04;;;;;;;8.30;1.50;;;;;;;23.06;48.83;101192.78;5011343;28;20433;-62
2022/06/12 01:25:29;;;;;;;3.10;1.50;;;;;;;23.13;48.30;101201.16;5011473;28;20049;-62
2022/06/12 01:28:36;;;;;;;2.47;1.30;;;;;;;23.11;48.35;101197.97;5011316;28;20100;-62
2022/06/12 01:31:30;;;;;;;4.32;1.45;;;;;;;23.08;48.33;101189.63;5011260;28;20304;-62
2022/06/12 01:34:34;;;;;;;4.18;1.30;;;;;;;23.15;48.14;101196.03;5016929;28;20044;-62
2022/06/12 01:37:53;;;;;;;3.70;1.20;;;;;;;23.08;48.53;101200.72;5011192;28;20053;-60
2022/06/12 01:40:51;;;;;;;5.13;1.30;;;;;;;23.15;48.29;101204.34;5011555;28;20053;-60
2022/06/12 01:43:41;;;;;;;3.40;1.70;;;;;;;23.06;48.55;101192.03;5011176;28;20045;-61
2022/06/12 01:46:41;;;;;;;5.43;1.30;;;;;;;23.00;48.64;101197.13;5011186;28;20049;-60
2022/06/12 01:49:49;;;;;;;2.15;1.45;;;;;;;22.96;48.97;101199.88;5010790;28;20061;-61
2022/06/12 01:53:08;;;;;;;4.30;1.33;;;;;;;22.94;48.48;101196.72;5011242;28;20053;-62
2022/06/12 01:56:00;;;;;;;2.30;1.30;;;;;;;22.78;49.15;101190.66;5011180;28;20053;-61
2022/06/12 01:59:02;;;;;;;3.28;1.42;;;;;;;22.86;49.28;101192.28;5012005;28;20045;-63
2022/06/12 02:02:28;;;;;;;11.27;1.45;;;;;;;22.83;49.21;101190.28;5015088;28;20405;-61
2022/06/12 02:05:22;;;;;;;;;;;;;;;22.82;49.03;101188.69;5015274;28;20497;-61
2022/06/12 02:08:24;;;;;;;2.35;1.20;;;;;;;22.77;49.38;101194.59;5014868;28;19913;-61
2022/06/12 02:14:30;;;;;;;4.47;1.63;;;;;;;22.79;49.22;101195.03;5014891;28;20045;-62
2022/06/12 02:17:23;;;;;;;3.95;1.42;;;;;;;22.77;49.23;101185.50;5014856;28;20061;-62
2022/06/12 02:20:12;;;;;;;2.60;1.10;;;;;;;22.77;49.18;101188.25;5014631;28;20045;-60
2022/06/12 02:22:58;;;;;;;2.42;1.23;;;;;;;22.79;49.22;101183.94;5014671;28;20057;-60
2022/06/12 02:25:46;;;;;;;8.68;3.08;;;;;;;22.75;49.16;101185.09;5014531;28;20048;-62
2022/06/12 02:28:47;;;;;;;2.75;1.38;;;;;;;22.81;49.08;101180.75;5014569;28;20520;-61
2022/06/12 02:31:45;;;;;;;2.65;1.40;;;;;;;22.67;49.17;101178.66;5014322;28;20048;-61
2022/06/12 02:34:36;;;;;;;2.53;1.25;;;;;;;22.73;49.22;101188.25;5014801;28;20065;-62
2022/06/12 02:37:27;;;;;;;5.28;1.83;;;;;;;22.80;48.93;101193.06;5014198;28;20516;-63
2022/06/12 02:40:23;;;;;;;2.25;1.30;;;;;;;22.82;49.16;101196.22;5014426;28;20041;-62
2022/06/12 02:43:13;;;;;;;4.78;1.52;;;;;;;22.79;49.59;101197.00;5014186;28;20405;-60
2022/06/12 02:46:04;;;;;;;3.53;1.27;;;;;;;22.61;50.40;101194.88;5014211;28;20049;-60
2022/06/12 02:48:50;;;;;;;2.22;1.33;;;;;;;22.52;50.77;101190.84;5014210;28;20053;-63
2022/06/12 02:51:55;;;;;;;3.85;1.98;;;;;;;22.51;50.74;101192.00;5014162;28;20071;-60
2022/06/12 02:55:03;;;;;;;25.45;3.50;;;;;;;22.57;50.01;101184.94;5013708;28;20496;-60
2022/06/12 02:57:57;;;;;;;1.58;1.42;;;;;;;22.59;49.81;101188.13;5013931;28;20038;-61
2022/06/12 03:00:46;;;;;;;5.00;1.45;;;;;;;22.61;49.41;101191.28;5014135;28;20045;-63
2022/06/12 03:03:54;;;;;;;5.95;1.65;;;;;;;22.52;49.83;101190.84;5013944;28;20065;-62
2022/06/12 03:06:40;;;;;;;3.55;1.33;;;;;;;22.47;49.96;101196.72;5013909;28;20057;-60
2022/06/12 03:09:26;;;;;;;6.43;1.60;;;;;;;22.41;50.09;101198.28;5013296;28;20401;-60
2022/06/12 03:12:12;;;;;;;2.10;1.30;;;;;;;22.42;50.07;101195.13;5013460;28;20049;-61
2022/06/12 03:14:57;;;;;;;2.63;1.40;;;;;;;22.37;50.12;101198.25;5013667;28;20049;-61
2022/06/12 03:17:43;;;;;;;5.82;1.70;;;;;;;22.41;50.22;101206.59;5013685;28;20057;-61
2022/06/12 03:20:36;;;;;;;3.83;2.17;;;;;;;22.38;50.06;101204.59;5013532;28;20073;-61
2022/06/12 03:23:43;;;;;;;12.05;2.38;;;;;;;22.37;50.35;101198.25;5013529;28;20053;-62
2022/06/12 03:26:37;;;;;;;2.95;1.63;;;;;;;22.29;50.49;101206.91;5013598;28;20046;-61
2022/06/12 03:29:41;;;;;;;6.10;1.67;;;;;;;22.26;50.92;101210.41;5013367;28;20044;-60
2022/06/12 03:32:51;;;;;;;6.35;2.10;;;;;;;22.20;51.03;101201.66;5023798;22;20057;-77
2022/06/12 03:35:45;;;;;;;2.83;1.40;;;;;;;22.17;51.27;101211.53;5011856;28;20052;-78
2022/06/12 03:38:48;;;;;;;6.50;1.80;;;;;;;22.19;50.88;101208.41;5011910;28;20045;-77
2022/06/12 03:41:50;;;;;;;8.85;2.20;;;;;;;22.18;51.72;101215.09;5013314;28;20041;-78
2022/06/12 03:44:46;;;;;;;4.88;2.17;;;;;;;22.07;51.89;101223.31;5013753;28;20117;-78
2022/06/12 03:47:37;;;;;;;10.13;2.58;;;;;;;21.95;52.68;101229.13;5012510;28;20060;-77
2022/06/12 03:50:38;;;;;;;13.57;2.58;;;;;;;22.13;52.31;101221.00;5013640;28;20038;-77
2022/06/12 03:53:29;;;;;;;11.75;3.38;;;;;;;22.10;52.16;101224.50;5012936;28;20046;-78
2022/06/12 03:59:32;;;;;;;5.97;3.08;;;;;;;22.00;52.78;101234.31;5016735;28;20042;-77
2022/06/12 04:02:22;;;;;;;7.80;2.58;;;;;;;21.95;53.39;101242.16;5013209;28;20067;-76
2022/06/12 04:05:11;;;;;;;10.75;3.20;;;;;;;21.77;53.48;101241.94;5013511;28;20522;-78
2022/06/12 04:07:59;;;;;;;7.47;3.17;;;;;;;21.82;53.55;101238.84;5013616;28;20045;-78
2022/06/12 04:10:44;;;;;;;6.75;3.08;;;;;;;21.99;53.15;101252.09;5006591;28;20049;-78
2022/06/12 04:13:30;;;;;;;10.27;3.47;;;;;;;21.98;53.35;101252.50;5012666;28;20048;-78
2022/06/12 04:16:23;;;;;;;9.45;2.70;;;;;;;21.86;53.32;101242.44;5013183;28;20056;-78
2022/06/12 04:19:16;;;;;;;4.38;2.28;;;;;;;21.78;53.46;101243.56;5011850;28;20041;-79
2022/06/12 04:22:06;;;;;;;4.72;2.65;;;;;;;21.75;53.47;101250.63;5007979;28;20053;-78
2022/06/12 04:25:02;;;;;;;7.03;2.08;;;;;;;21.93;53.30;101250.03;5009563;28;20522;-79
2022/06/12 04:27:48;;;;;;;13.07;2.90;;;;;;;21.89;53.92;101246.44;5012928;28;20064;-79
2022/06/12 04:30:38;;;;;;;10.07;2.53;;;;;;;22.03;53.27;101246.63;5001977;28;20038;-78
2022/06/12 04:33:51;;;;;;;7.70;2.28;;;;;;;22.08;53.35;101249.03;5008952;28;20499;-79
2022/06/12 04:36:36;;;;;;;9.80;3.58;;;;;;;22.12;53.53;101247.91;5013183;28;20045;-78
2022/06/12 04:39:25;;;;;;;7.20;2.20;;;;;;;22.24;53.02;101255.16;5008909;28;20516;-84
2022/06/12 04:42:13;;;;;;;4.38;1.98;;;;;;;22.33;53.17;101247.31;5020043;28;20044;-81
2022/06/12 04:45:00;;;;;;;3.15;1.85;;;;;;;22.49;52.82;101247.84;5018337;28;20049;-81
2022/06/12 04:47:45;;;;;;;6.20;2.78;;;;;;;22.54;53.09;101239.19;5017335;28;20064;-83
2022/06/12 04:50:30;;;;;;;16.85;2.63;;;;;;;22.84;52.82;101243.78;5013782;28;20052;-83
2022/06/12 04:53:16;;;;;;;11.80;2.78;;;;;;;23.03;52.20;101244.31;5011674;28;20050;-83
2022/06/12 04:56:02;;;;;;;7.72;2.42;;;;;;;23.19;52.37;101232.91;5007639;28;20046;-83
2022/06/12 04:58:49;;;;;;;7.78;2.80;;;;;;;23.30;52.36;101241.28;5009301;28;20514;-82
2022/06/12 05:01:34;;;;;;;9.88;2.67;;;;;;;23.39;51.77;101245.31;5014735;28;20053;-83
2022/06/12 05:04:20;;;;;;;9.48;2.45;;;;;;;23.53;51.66;101246.56;5009444;28;20041;-82
2022/06/12 05:07:07;;;;;;;8.52;2.97;;;;;;;23.63;51.53;101237.50;5010887;28;20052;-82
2022/06/12 05:09:52;;;;;;;10.02;2.38;;;;;;;23.68;51.27;101237.91;5015883;28;20040;-82
2022/06/12 05:12:37;;;;;;;10.95;3.42;;;;;;;23.76;51.23;101239.53;5013114;28;20057;-82
2022/06/12 05:15:23;;;;;;;5.25;2.58;;;;;;;23.84;51.38;101255.03;5020339;28;20646;-83
2022/06/12 05:18:11;;;;;;;12.82;2.75;;;;;;;23.92;51.27;101246.72;5018868;28;20525;-84
2022/06/12 05:20:57;;;;;;;10.20;2.60;;;;;;;23.97;51.15;101257.44;5016323;28;20117;-83
2022/06/12 05:23:41;;;;;;;4.80;2.00;;;;;;;24.01;50.97;101249.91;5024699;28;20052;-83
2022/06/12 05:26:26;;;;;;;8.25;2.15;;;;;;;24.06;50.79;101255.88;5019767;28;20049;-83
2022/06/12 05:29:20;;;;;;;4.35;2.15;;;;;;;24.12;50.90;101253.50;5019058;28;20033;-84
2022/06/12 05:32:06;;;;;;;7.05;2.47;;;;;;;24.13;50.81;101258.66;5008582;28;20044;-84
2022/06/12 05:34:52;;;;;;;4.35;1.73;;;;;;;24.17;50.39;101250.38;5013631;28;20049;-84
2022/06/12 05:37:38;;;;;;;7.15;2.00;;;;;;;24.24;50.51;101253.16;5023992;28;20053;-84
2022/06/12 05:40:26;;;;;;;7.63;2.47;;;;;;;24.31;50.21;101258.72;5017962;28;20094;-83
2022/06/12 05:43:10;;;;;;;6.95;2.53;;;;;;;24.31;49.69;101258.72;5014642;28;20048;-83
2022/06/12 05:45:56;;;;;;;4.95;1.95;;;;;;;24.31;47.77;101261.50;5012436;28;20073;-83
2022/06/12 05:48:41;;;;;;;8.77;2.28;;;;;;;24.37;49.18;101264.69;5010795;28;20052;-84
2022/06/12 05:51:26;;;;;;;10.68;2.20;;;;;;;24.39;48.95;101257.53;5016054;28;20450;-84
2022/06/12 05:54:11;;;;;;;6.50;2.08;;;;;;;24.42;47.72;101270.66;5019090;28;20034;-84
2022/06/12 05:56:56;;;;;;;3.38;1.77;;;;;;;24.49;49.15;101270.66;5019423;28;20510;-83
2022/06/12 05:59:41;;;;;;;5.53;1.83;;;;;;;24.49;48.14;101269.84;5004992;28;20045;-84
2022/06/12 06:02:26;;;;;;;4.32;2.03;;;;;;;24.52;48.29;101263.50;5017818;28;20057;-83
2022/06/12 06:05:11;;;;;;;3.55;1.67;;;;;;;24.58;47.01;101268.25;5014479;28;20049;-84
2022/06/12 06:07:56;;;;;;;5.30;1.90;;;;;;;24.63;46.32;101269.88;5010157;28;20048;-83
2022/06/12 06:10:42;;;;;;;6.43;1.95;;;;;;;24.66;46.46;101266.28;5017794;28;20507;-83
2022/06/12 06:13:27;;;;;;;2.95;1.60;;;;;;;24.71;47.14;101268.66;5009182;28;20049;-83
2022/06/12 06:16:12;;;;;;;5.28;2.35;;;;;;;24.75;46.49;101260.31;5018691;28;20049;-83
2022/06/12 06:18:57;;;;;;;5.32;1.65;;;;;;;24.82;47.57;101266.69;5010123;28;22170;-83
2022/06/12 06:21:42;;;;;;;3.42;1.92;;;;;;;24.89;46.83;101277.06;5018613;28;20045;-83
2022/06/12 06:24:27;;;;;;;4.80;1.70;;;;;;;24.90;47.33;101289.75;5014672;28;20069;-84
2022/06/12 06:27:14;;;;;;;4.15;1.42;;;;;;;24.94;47.88;101298.91;5017387;28;20053;-83
2022/06/12 06:30:00;;;;;;;7.20;1.55;;;;;;;24.89;48.64;101288.94;5016586;28;20045;-83
2022/06/12 06:32:45;;;;;;;4.38;2.03;;;;;;;24.95;48.62;101286.56;5004768;28;20045;-83
2022/06/12 06:35:30;;;;;;;2.33;1.48;;;;;;;24.97;48.61;101289.75;5012830;28;20041;-82
2022/06/12 06:38:16;;;;;;;6.60;2.20;;;;;;;25.00;48.78;101284.16;5013441;28;20049;-82
2022/06/12 06:41:01;;;;;;;4.45;1.83;;;;;;;25.05;48.44;101285.75;5019669;28;20041;-83
2022/06/12 06:46:50;;;;;;;5.05;2.05;;;;;;;25.20;46.67;101284.53;5023850;28;20053;-84
2022/06/12 06:49:35;;;;;;;7.60;2.75;;;;;;;25.35;46.46;101288.88;5020744;28;20048;-84
2022/06/12 06:52:20;;;;;;;7.93;2.55;;;;;;;25.39;46.16;101288.88;5021545;28;20049;-83
2022/06/12 06:55:06;;;;;;;5.57;2.33;;;;;;;25.43;45.42;101296.03;5019362;28;20303;-84
2022/06/12 06:57:51;;;;;;;6.25;3.03;;;;;;;25.47;45.46;101288.44;5027547;28;20052;-84
2022/06/12 07:00:39;;;;;;;3.50;2.28;;;;;;;25.53;45.01;101284.06;5021894;28;20416;-82
2022/06/12 07:03:24;;;;;;;4.75;2.97;;;;;;;25.62;45.11;101291.19;5019727;28;20053;-83
2022/06/12 07:06:12;;;;;;;3.97;2.00;;;;;;;25.65;44.68;101288.41;5027115;28;20554;-83
2022/06/12 07:08:57;;;;;;;3.67;1.67;;;;;;;25.64;44.97;101297.19;5026806;28;20136;-83
2022/06/12 07:11:42;;;;;;;6.18;2.17;;;;;;;25.67;44.80;101297.16;5021144;28;20541;-84
2022/06/12 07:14:28;;;;;;;4.20;2.67;;;;;;;25.75;44.22;101295.16;5021136;28;20052;-84
2022/06/12 07:17:13;;;;;;;4.40;1.83;;;;;;;25.81;43.71;101305.44;5022228;28;20045;-83
2022/06/12 07:19:58;;;;;;;4.05;1.60;;;;;;;25.80;44.75;101291.94;5000819;28;20061;-83
2022/06/12 07:22:43;;;;;;;3.47;1.65;;;;;;;25.89;43.42;101295.06;5001738;28;20686;-83
2022/06/12 07:25:32;;;;;;;3.58;1.95;;;;;;;25.94;42.97;101297.44;5014713;28;20053;-83
2022/06/12 07:28:18;;;;;;;6.45;1.70;;;;;;;26.09;42.96;101296.16;5016858;28;20041;-83
2022/06/12 07:31:04;;;;;;;6.60;1.92;;;;;;;26.15;42.12;101299.31;5023701;28;20419;-84
2022/06/12 07:33:50;;;;;;;4.30;1.55;;;;;;;26.18;42.38;101304.88;5026346;28;20048;-83
2022/06/12 07:36:36;;;;;;;3.40;2.13;;;;;;;26.24;42.57;101292.13;5016438;28;20056;-85
2022/06/12 07:39:27;;;;;;;3.25;1.55;;;;;;;26.32;42.96;101298.44;5017850;28;20049;-84
2022/06/12 07:42:12;;;;;;;2.97;1.83;;;;;;;26.37;43.02;101298.00;5020555;28;20045;-86
2022/06/12 07:44:57;;;;;;;3.08;2.00;;;;;;;26.37;42.88;101296.00;5019283;28;20053;-85
2022/06/12 07:47:42;;;;;;;;;;;;;;;26.41;42.66;101287.63;5026806;28;20049;-85
2022/06/12 07:50:27;;;;;;;2.20;1.20;;;;;;;26.46;42.92;101294.75;5021407;28;19913;-84
2022/06/12 07:53:12;;;;;;;3.28;1.15;;;;;;;26.43;44.04;101284.41;5019674;28;20048;-84
2022/06/12 07:55:58;;;;;;;3.78;1.77;;;;;;;26.47;43.62;101279.59;5015107;28;20045;-85
2022/06/12 07:58:45;;;;;;;1.35;1.08;;;;;;;26.46;43.60;101291.97;5015247;28;20048;-85
2022/06/12 08:01:30;;;;;;;1.88;1.40;;;;;;;26.59;42.95;101287.47;5014953;28;20109;-85
2022/06/12 08:04:15;;;;;;;3.80;1.60;;;;;;;26.55;43.82;101279.16;4999331;28;20053;-85
2022/06/12 08:07:00;;;;;;;3.67;1.55;;;;;;;26.56;42.63;101283.53;4999525;28;20057;-85
2022/06/12 08:09:45;;;;;;;3.08;1.15;;;;;;;26.66;42.49;101282.66;4999088;28;20053;-85
2022/06/12 08:12:32;;;;;;;3.63;1.27;;;;;;;26.69;42.85;101281.00;5010214;28;20049;-85
2022/06/12 08:15:22;;;;;;;2.25;1.38;;;;;;;26.69;43.41;101279.03;5020258;28;20056;-84
2022/06/12 08:18:07;;;;;;;3.17;1.13;;;;;;;26.78;43.21;101275.75;5018452;28;20049;-85
2022/06/12 08:20:56;;;;;;;2.40;1.48;;;;;;;26.85;43.20;101278.50;5015010;28;20053;-85
2022/06/12 08:23:49;;;;;;;3.53;2.40;;;;;;;27.11;42.68;101279.88;5018929;28;20069;-85
2022/06/12 08:26:34;;;;;;;1.50;1.17;;;;;;;26.93;42.75;101273.66;5025232;28;20049;-85
2022/06/12 08:29:18;;;;;;;;;;;;;;;26.93;42.77;101270.84;5024791;28;20057;-85
2022/06/12 08:32:10;;;;;;;2.45;1.67;;;;;;;27.04;42.35;101272.34;5019678;28;19913;-84
2022/06/12 08:35:00;;;;;;;1.95;1.20;;;;;;;27.09;41.43;101269.09;5014830;28;20064;-85
2022/06/12 08:37:45;;;;;;;2.55;1.10;;;;;;;27.13;42.31;101275.44;5014274;28;20045;-85
2022/06/12 08:40:40;;;;;;;3.10;1.55;;;;;;;27.13;42.89;101278.22;5014675;28;20049;-86
2022/06/12 08:43:37;;;;;;;3.53;1.40;;;;;;;27.15;41.73;101275.03;5019592;28;20438;-84
2022/06/12 08:46:53;;;;;;;9.60;1.33;;;;;;;27.13;43.45;101283.81;5020825;28;20048;-85
2022/06/12 08:50:02;;;;;;;4.25;1.13;;;;;;;27.17;42.70;101273.38;5018518;28;20406;-83
2022/06/12 08:52:53;;;;;;;3.92;1.65;;;;;;;27.09;43.48;101266.31;5018289;28;20053;-84
2022/06/12 08:55:40;;;;;;;2.83;1.20;;;;;;;27.24;42.40;101261.34;5023695;28;20053;-84
2022/06/12 08:59:03;;;;;;;2.30;1.20;;;;;;;27.20;42.62;101261.41;5024519;28;20100;-84
2022/06/12 09:01:48;;;;;;;1.63;1.10;;;;;;;27.25;42.85;101268.53;5031801;28;20534;-84
2022/06/12 09:04:34;;;;;;;2.70;0.95;;;;;;;27.23;43.10;101265.34;4997752;28;20122;-84
2022/06/12 09:07:26;;;;;;;3.40;1.27;;;;;;;27.23;42.95;101259.75;5005280;28;20049;-84
2022/06/12 09:10:31;;;;;;;1.92;1.00;;;;;;;27.24;42.88;101264.16;5017858;28;20037;-84
2022/06/12 09:13:44;;;;;;;3.70;1.63;;;;;;;27.54;39.48;101257.84;5000649;28;20041;-85
2022/06/12 09:16:38;;;;;;;2.53;1.50;;;;;;;27.53;41.20;101253.47;5028118;28;20426;-85
2022/06/12 09:19:29;;;;;;;3.30;1.88;;;;;;;27.54;40.74;101260.63;5018769;28;20057;-87
2022/06/12 09:22:28;;;;;;;3.13;1.45;;;;;;;27.50;41.82;101257.88;5009811;28;20523;-83
2022/06/12 09:25:45;;;;;;;3.50;1.15;;;;;;;27.56;40.35;101253.44;5003100;28;20064;-84
2022/06/12 09:28:39;;;;;;;2.08;1.10;;;;;;;27.57;40.34;101254.22;5016243;28;20049;-85
2022/06/12 09:31:51;;;;;;;3.10;1.30;;;;;;;27.82;38.63;101245.50;5013936;28;20045;-84
2022/06/12 09:34:48;;;;;;;4.32;1.17;;;;;;;27.96;39.39;101248.09;5072966;22;20057;-66
2022/06/12 09:38:21;;;;;;;3.40;1.80;;;;;;;27.80;41.12;101243.13;5014561;28;20053;-66
2022/06/12 09:41:25;;;;;;;1.92;1.38;;;;;;;27.69;41.40;101242.47;4996183;28;20054;-66
2022/06/12 09:44:24;;;;;;;1.67;1.30;;;;;;;27.81;39.41;101244.72;4991390;28;20042;-66
2022/06/12 09:47:29;;;;;;;4.15;1.63;;;;;;;27.80;39.85;101233.94;4991336;28;20053;-66
2022/06/12 09:50:29;;;;;;;4.15;1.55;;;;;;;27.95;38.23;101233.31;4991678;28;20524;-66
2022/06/12 09:53:51;;;;;;;3.00;1.52;;;;;;;27.87;40.63;101240.25;4992781;28;20512;-66
2022/06/12 09:56:50;;;;;;;1.48;1.10;;;;;;;27.99;40.79;101234.06;4997183;28;20445;-65
2022/06/12 09:59:58;;;;;;;3.13;1.17;;;;;;;27.82;41.35;101231.53;4990604;28;20053;-65
2022/06/12 10:02:55;;;;;;;1.67;0.90;;;;;;;27.78;41.33;101233.59;4984448;28;20053;-65
2022/06/12 10:05:56;;;;;;;3.33;1.40;;;;;;;27.75;41.28;101229.63;4985668;28;20421;-65
2022/06/12 10:08:51;;;;;;;3.08;1.38;;;;;;;28.07;38.72;101226.38;4990074;28;20049;-65
2022/06/12 10:11:43;;;;;;;4.07;1.30;;;;;;;28.23;37.71;101220.97;4987446;28;20049;-65
2022/06/12 10:14:38;;;;;;;1.35;0.90;;;;;;;28.37;37.68;101214.31;4982326;28;20050;-65
2022/06/12 10:17:38;;;;;;;2.63;0.77;;;;;;;28.22;39.75;101208.19;4988311;28;20402;-66
2022/06/12 10:20:29;;;;;;;3.30;1.35;;;;;;;28.11;39.88;101207.53;4991632;28;20053;-65
2022/06/12 10:23:15;;;;;;;2.47;1.30;;;;;;;28.23;38.53;101197.78;4994033;28;20053;-65
2022/06/12 10:26:01;;;;;;;5.60;1.35;;;;;;;28.32;38.71;101201.63;4990427;28;20049;-64
2022/06/12 10:28:46;;;;;;;1.80;1.05;;;;;;;28.27;38.88;101192.91;4987578;28;20045;-65
2022/06/12 10:31:34;;;;;;;3.40;1.30;;;;;;;28.52;38.35;101189.69;4994808;28;20409;-65
2022/06/12 10:34:23;;;;;;;1.63;1.05;;;;;;;28.80;37.16;101183.63;4995010;28;20053;-65
2022/06/12 10:37:28;;;;;;;4.13;1.33;;;;;;;28.82;37.89;101179.16;4993896;28;20061;-65
2022/06/12 10:40:16;;;;;;;;;;;;;;;29.07;36.95;101178.66;4991857;28;20049;-66
2022/06/12 10:43:05;;;;;;;3.15;1.20;;;;;;;28.76;38.36;101182.88;4994535;28;19914;-65
2022/06/12 10:46:17;;;;;;;5.03;1.30;;;;;;;28.44;40.04;101175.81;4996944;28;20045;-65
2022/06/12 10:49:16;;;;;;;5.32;1.30;;;;;;;28.35;40.02;101171.97;4975217;28;20070;-65
2022/06/12 10:52:07;;;;;;;10.70;1.73;;;;;;;28.75;36.36;101176.47;4975057;28;20049;-65
2022/06/12 10:54:52;;;;;;;1.88;1.05;;;;;;;28.57;39.29;101169.59;4977385;28;20042;-65
2022/06/12 10:58:24;;;;;;;6.60;1.30;;;;;;;28.75;38.81;101167.31;4991260;28;20539;-65
2022/06/12 11:01:27;;;;;;;1.27;1.05;;;;;;;28.68;38.43;101162.59;4989686;28;20041;-65
2022/06/12 11:04:37;;;;;;;1.83;1.40;;;;;;;28.58;38.69;101160.00;4982269;28;20049;-65
2022/06/12 11:07:41;;;;;;;2.50;1.20;;;;;;;28.98;36.59;101147.66;4993890;28;20061;-65
2022/06/12 11:10:53;;;;;;;2.05;1.33;;;;;;;29.19;35.70;101152.03;4994158;28;20049;-65
2022/06/12 11:14:06;;;;;;;2.38;1.67;;;;;;;29.53;34.35;101146.88;4994041;28;20045;-65
2022/06/12 11:17:15;;;;;;;1.20;1.10;;;;;;;29.66;34.56;101147.78;4993524;28;20050;-66
2022/06/12 11:20:18;;;;;;;2.75;1.27;;;;;;;29.54;34.76;101140.06;4993112;28;20049;-65
2022/06/12 11:23:25;;;;;;;2.05;1.10;;;;;;;29.07;37.70;101144.25;4988083;28;20041;-66
2022/06/12 11:26:18;;;;;;;1.02;0.93;;;;;;;28.90;38.67;101135.03;4989059;28;20054;-66
2022/06/12 11:29:18;;;;;;;3.67;1.10;;;;;;;28.68;39.19;101139.41;4993041;28;20050;-66
2022/06/12 11:32:15;;;;;;;2.97;1.40;;;;;;;28.60;39.08;101132.38;4987594;28;20118;-66
2022/06/12 11:35:00;;;;;;;5.28;1.88;;;;;;;28.71;38.52;101138.53;4990291;28;20045;-66
2022/06/12 11:38:00;;;;;;;1.60;0.98;;;;;;;28.77;38.66;101134.06;4992873;28;20520;-66
2022/06/12 11:41:01;;;;;;;3.38;0.90;;;;;;;28.55;39.45;101124.47;4990145;28;20050;-66
2022/06/12 11:44:25;;;;;;;2.65;0.95;;;;;;;28.39;39.88;101127.97;4987352;28;20046;-66
2022/06/12 11:47:38;;;;;;;1.65;1.35;;;;;;;28.54;38.77;101114.50;4990003;28;20421;-66
2022/06/12 11:50:45;;;;;;;1.30;1.08;;;;;;;28.60;39.19;101116.34;4982180;28;20074;-65
2022/06/12 11:53:51;;;;;;;6.00;1.10;;;;;;;28.68;38.54;101100.22;4993206;28;20320;-65
2022/06/12 11:56:56;;;;;;;2.42;1.10;;;;;;;28.78;37.35;101099.25;4992800;28;20064;-65
2022/06/12 12:00:09;;;;;;;3.42;1.00;;;;;;;28.90;38.36;101098.63;4991774;28;20054;-65
2022/06/12 12:03:24;;;;;;;6.18;1.10;;;;;;;28.97;36.71;101095.66;4991576;28;20049;-65
2022/06/12 12:06:27;;;;;;;1.58;1.08;;;;;;;28.75;38.86;101089.69;4999890;28;20049;-66
2022/06/12 12:09:33;;;;;;;3.33;1.20;;;;;;;28.89;37.09;101089.44;4989682;28;20057;-66
2022/06/12 12:12:24;;;;;;;13.30;2.35;;;;;;;29.03;35.80;101081.94;4989729;28;20413;-66
2022/06/12 12:15:35;;;;;;;1.95;0.75;;;;;;;29.29;37.20;101078.16;4991224;28;20046;-65
2022/06/12 12:18:33;;;;;;;3.25;1.15;;;;;;;29.16;37.24;101080.81;4989793;28;20045;-66
2022/06/12 12:21:49;;;;;;;4.57;1.30;;;;;;;28.81;38.68;101079.56;4989431;28;20521;-66
2022/06/12 12:24:44;;;;;;;1.83;1.13;;;;;;;28.65;39.12;101073.88;4991636;28;20069;-66
2022/06/12 12:27:39;;;;;;;4.43;1.52;;;;;;;29.77;36.45;101072.63;4990794;28;20049;-67
2022/06/12 12:30:26;;;;;;;;;;;;;;;30.71;34.03;101080.22;4992114;28;20524;-67
2022/06/12 12:33:17;;;;;;;3.47;1.00;;;;;;;31.55;32.42;101085.28;4978277;28;19914;-66
2022/06/12 12:42:29;;;;;;;1.83;1.15;;;;;;;33.30;28.40;101061.00;4982259;28;20524;-67
2022/06/12 12:45:23;;;;;;;10.07;1.45;;;;;;;33.58;28.49;101070.31;4992021;28;20042;-66
2022/06/12 12:48:12;;;;;;;5.82;1.52;;;;;;;33.78;27.98;101065.09;4982052;28;20410;-66
2022/06/12 12:50:57;;;;;;;4.22;1.10;;;;;;;32.21;30.44;101056.16;4990956;28;20045;-70
2022/06/12 12:53:42;;;;;;;2.22;0.77;;;;;;;31.23;31.17;101052.59;4979724;28;20109;-67
2022/06/12 12:56:31;;;;;;;2.05;1.05;;;;;;;30.79;32.34;101047.88;4981313;28;20062;-68
2022/06/12 12:59:17;;;;;;;4.07;0.93;;;;;;;30.65;31.74;101043.47;4986400;28;20038;-67
2022/06/12 13:02:29;;;;;;;2.75;1.42;;;;;;;30.42;33.17;101038.09;4983693;28;20517;-66
2022/06/12 13:05:22;;;;;;;5.22;1.25;;;;;;;30.30;33.84;101028.38;4991889;28;20069;-71
2022/06/12 13:08:34;;;;;;;5.38;1.17;;;;;;;29.78;33.90;101031.34;5002554;28;20047;-65
2022/06/12 13:11:37;;;;;;;6.95;1.30;;;;;;;29.72;34.15;101033.88;4982253;28;20046;-66
2022/06/12 13:14:59;;;;;;;3.10;1.20;;;;;;;29.80;33.78;101014.09;4975029;28;20054;-65
2022/06/12 13:17:49;;;;;;;5.72;1.33;;;;;;;29.75;34.30;101013.41;4984022;28;20432;-66
2022/06/12 13:21:01;;;;;;;2.55;1.05;;;;;;;29.49;34.98;101006.03;4980278;28;20045;-65
2022/06/12 13:23:52;;;;;;;1.83;1.33;;;;;;;29.70;33.03;100997.09;4981918;28;20041;-65
2022/06/12 13:26:41;;;;;;;1.83;1.02;;;;;;;29.68;34.47;101005.16;4976606;28;20050;-65
2022/06/12 13:29:27;;;;;;;2.38;1.00;;;;;;;29.14;35.38;100990.06;4986934;28;20409;-65
2022/06/12 13:32:21;;;;;;;1.98;0.90;;;;;;;29.21;35.04;100985.06;4981973;28;20046;-65
2022/06/12 13:35:29;;;;;;;2.15;0.75;;;;;;;29.18;35.45;100987.97;4982658;28;20406;-65
2022/06/12 13:38:28;;;;;;;4.97;1.20;;;;;;;29.69;32.44;100984.31;4981156;28;20045;-65
2022/06/12 13:41:31;;;;;;;2.92;0.90;;;;;;;29.46;34.25;100984.47;4988507;28;20421;-65
2022/06/12 13:44:51;;;;;;;3.00;1.10;;;;;;;28.91;35.95;100980.56;4983604;28;20042;-66
2022/06/12 13:47:36;;;;;;;5.13;1.25;;;;;;;28.77;36.31;100966.88;4977173;28;20054;-65
2022/06/12 13:50:29;;;;;;;3.58;1.00;;;;;;;28.57;36.00;100966.09;4977022;28;20041;-65